18  °C
Temperature
64  °F
Temperature
48  °F
 Dewpoint
9  °C
  Dewpoint
56  %
 Humidity
  Temperature
7  mph
Wind Speed
6  kts
Wind Speed
11  km/h
Wind Speed
3.1  m/s
Wind Speed
170°
Due South

Wind Speed
Clear
Conditions
Pressure 1000.92 (mb) - 29.56 (inHG)
Visibility 6.2 (mi) - 10.0 (km)

Sky Conditions
EGGD
Location Bristol International 15 mi (24.14 km)
Metar :EGGD 221720Z AUTO 17006KT 9999 NCD 18/09 Q1001
Mon 22nd April 18:20 pm

Nearest Airport
https://www.checkwx.com/weather/EGGD
  Metar Aviation API Data Provided by https://www.checkwx.com/ Original CSS/SVG/PHP scripts by weather34.com © 2015-2019